Time;durP1;ratioP1;P1;durP2;ratioP2;P2;SDS_P1;SDS_P2;PMS_P1;PMS_P2;Temp;Humidity;BMP_temperature;BMP_pressure;BME280_temperature;BME280_humidity;BME280_pressure;Samples;Min_cycle;Max_cycle;Signal;HPM_P1;HPM_P2
2022/12/13 00:00:29;;;;;;;2.42;1.30;;;;;;;2.56;85.92;95667.44;5133906;28;20047;-61
2022/12/13 00:02:56;;;;;;;1.90;1.05;;;;;;;2.54;85.90;95662.31;5133619;27;20054;-64
2022/12/13 00:05:23;;;;;;;2.35;1.13;;;;;;;2.53;86.23;95656.28;5137227;27;20043;-62
2022/12/13 00:07:50;;;;;;;1.25;1.15;;;;;;;2.51;86.04;95663.25;5138063;27;20488;-66
2022/12/13 00:10:17;;;;;;;1.20;1.10;;;;;;;2.49;86.63;95656.38;5138001;27;20050;-65
2022/12/13 00:12:46;;;;;;;2.83;1.40;;;;;;;2.50;86.07;95658.09;5137783;27;20043;-64
2022/12/13 00:15:13;;;;;;;1.08;1.00;;;;;;;2.49;86.22;95659.81;5137724;27;20039;-65
2022/12/13 00:17:40;;;;;;;1.35;1.25;;;;;;;2.44;86.80;95663.38;5137840;27;20477;-67
2022/12/13 00:20:09;;;;;;;1.42;1.08;;;;;;;2.44;86.64;95671.97;5137624;27;20092;-63
2022/12/13 00:22:37;;;;;;;1.23;1.13;;;;;;;2.43;86.46;95674.56;5136593;27;20130;-62
2022/12/13 00:25:05;;;;;;;1.05;0.95;;;;;;;2.37;87.20;95663.50;5137521;27;20553;-64
2022/12/13 00:27:32;;;;;;;1.10;1.00;;;;;;;2.40;86.37;95685.81;5137576;27;20512;-63
2022/12/13 00:30:01;;;;;;;2.42;1.15;;;;;;;2.41;86.81;95695.28;5137512;27;20086;-63
2022/12/13 00:32:28;;;;;;;1.20;1.10;;;;;;;2.43;87.29;95690.91;5137377;27;20485;-66
2022/12/13 00:34:55;;;;;;;1.90;1.80;;;;;;;2.40;88.37;95698.72;5137450;27;20094;-66
2022/12/13 00:37:22;;;;;;;1.40;1.30;;;;;;;2.47;88.76;95695.13;5137433;27;20104;-65
2022/12/13 00:39:50;;;;;;;2.50;1.30;;;;;;;2.61;89.13;95694.88;5137272;27;20088;-63
2022/12/13 00:42:18;;;;;;;1.35;1.25;;;;;;;2.62;88.89;95691.41;5136998;27;20504;-62
2022/12/13 00:44:46;;;;;;;1.42;1.33;;;;;;;2.68;88.05;95685.25;5137236;27;20039;-64
2022/12/13 00:47:19;;;;;;;1.63;1.17;;;;;;;2.69;86.92;95675.78;5137316;27;20500;-63
2022/12/13 00:49:46;;;;;;;1.23;1.10;;;;;;;2.71;87.14;95674.03;5137155;27;20057;-63
2022/12/13 00:52:13;;;;;;;1.20;1.10;;;;;;;2.73;86.31;95670.53;5137131;27;20125;-65
2022/12/13 00:54:41;;;;;;;0.95;0.90;;;;;;;2.71;86.63;95668.88;5137116;27;20065;-62
2022/12/13 00:57:08;;;;;;;1.20;1.00;;;;;;;2.71;86.22;95685.19;5136985;27;20492;-65
2022/12/13 00:59:35;;;;;;;1.08;0.95;;;;;;;2.78;86.20;95685.94;5136891;27;20047;-64
2022/12/13 01:02:02;;;;;;;1.00;1.00;;;;;;;2.80;86.91;95691.06;5136939;27;20043;-62
2022/12/13 01:04:34;;;;;;;5.93;1.13;;;;;;;2.78;87.30;95704.88;5136808;27;20086;-62
2022/12/13 01:07:01;;;;;;;2.42;1.20;;;;;;;2.87;87.52;95705.56;5136894;27;20043;-63
2022/12/13 01:09:31;;;;;;;1.25;1.15;;;;;;;2.93;86.89;95709.75;5136886;27;20047;-62
2022/12/13 01:11:59;;;;;;;1.65;1.10;;;;;;;2.94;86.89;95717.47;5136902;27;20061;-67
2022/12/13 01:14:27;;;;;;;6.15;1.02;;;;;;;2.97;86.44;95725.16;5136107;27;20061;-64
2022/12/13 01:16:54;;;;;;;1.30;1.20;;;;;;;2.95;85.71;95716.56;5136681;27;20439;-65
2022/12/13 01:19:22;;;;;;;1.27;1.10;;;;;;;2.97;85.10;95713.97;5136688;27;20071;-65
2022/12/13 01:21:54;;;;;;;1.30;1.08;;;;;;;2.92;85.32;95724.38;5136505;27;20051;-66
2022/12/13 01:24:24;;;;;;;1.20;1.10;;;;;;;2.93;85.35;95715.78;5136382;27;20043;-64
2022/12/13 01:26:52;;;;;;;1.55;1.25;;;;;;;2.94;84.66;95712.28;5136370;27;20083;-65
2022/12/13 01:29:20;;;;;;;2.20;1.15;;;;;;;2.87;84.64;95713.31;5136308;27;20043;-63
2022/12/13 01:31:48;;;;;;;0.82;0.82;;;;;;;2.75;84.55;95710.09;5136356;27;20051;-62
2022/12/13 01:34:17;;;;;;;1.63;1.00;;;;;;;2.68;84.00;95711.09;5136330;27;20051;-63
2022/12/13 01:36:45;;;;;;;0.70;0.70;;;;;;;2.62;84.05;95716.41;5136303;27;20048;-62
2022/12/13 01:39:18;;;;;;;1.85;1.23;;;;;;;2.63;84.24;95715.50;5136176;27;20086;-65
2022/12/13 01:41:48;;;;;;;1.38;1.10;;;;;;;2.69;84.00;95715.38;5135838;27;20047;-66
2022/12/13 01:44:52;;;;;;;2.50;1.27;;;;;;;2.75;84.09;95709.25;5136144;27;20057;-65
2022/12/13 01:47:24;;;;;;;0.88;0.88;;;;;;;2.77;83.29;95715.25;5136012;27;20070;-65
2022/12/13 01:49:54;;;;;;;0.80;0.80;;;;;;;2.82;83.17;95718.56;5136070;27;20461;-65
2022/12/13 01:52:22;;;;;;;0.93;0.80;;;;;;;2.72;82.83;95729.97;5136057;27;20039;-64
2022/12/13 01:54:55;;;;;;;1.05;0.95;;;;;;;2.63;82.55;95715.50;5135880;27;20051;-64
2022/12/13 01:57:23;;;;;;;0.90;0.90;;;;;;;2.67;82.58;95714.56;5135912;27;20044;-63
2022/12/13 01:59:53;;;;;;;3.10;0.90;;;;;;;2.68;82.71;95729.16;5135848;27;20549;-67
2022/12/13 02:02:21;;;;;;;2.15;1.10;;;;;;;2.70;82.60;95723.97;5135765;27;20477;-66
2022/12/13 02:04:55;;;;;;;0.95;0.95;;;;;;;2.57;82.32;95726.81;5135567;27;20062;-65
2022/12/13 02:07:29;;;;;;;1.42;1.10;;;;;;;2.47;82.25;95725.28;5135590;27;20046;-65
2022/12/13 02:10:01;;;;;;;0.88;0.88;;;;;;;2.49;82.65;95726.94;5135608;27;20131;-65
2022/12/13 02:12:31;;;;;;;0.95;0.90;;;;;;;2.46;82.20;95726.16;5135494;27;20051;-63
2022/12/13 02:15:00;;;;;;;13.17;8.17;;;;;;;2.47;82.12;95733.03;5135541;27;20500;-67
2022/12/13 02:17:35;;;;;;;1.70;1.33;;;;;;;2.38;81.27;95732.31;5135517;27;20336;-65
2022/12/13 02:20:38;;;;;;;10.63;5.75;;;;;;;2.22;81.12;95731.75;5135394;27;20047;-65
2022/12/13 02:23:40;;;;;;;3.88;2.55;;;;;;;2.17;81.51;95732.72;5135256;27;20078;-64
2022/12/13 02:26:37;;;;;;;1.73;1.63;;;;;;;2.12;81.65;95732.78;5117947;27;20075;-65
2022/12/13 02:29:23;;;;;;;1.63;1.52;;;;;;;1.89;81.46;95739.19;5135385;27;20043;-63
2022/12/13 02:32:00;;;;;;;2.45;2.25;;;;;;;1.89;81.44;95744.34;5135189;27;20050;-64
2022/12/13 02:34:34;;;;;;;4.07;1.30;;;;;;;1.87;80.94;95743.53;5135140;27;20039;-63
2022/12/13 02:37:08;;;;;;;1.10;1.00;;;;;;;1.73;80.87;95742.03;5135097;27;20082;-64
2022/12/13 02:39:40;;;;;;;1.75;1.30;;;;;;;1.67;80.65;95743.81;5135085;27;20115;-61
2022/12/13 02:42:13;;;;;;;1.38;1.25;;;;;;;1.61;80.12;95752.50;5134784;27;20039;-67
2022/12/13 02:44:47;;;;;;;1.27;1.08;;;;;;;1.53;80.31;95756.94;5135009;27;20047;-64
2022/12/13 02:47:20;;;;;;;4.70;1.20;;;;;;;1.47;80.55;95760.44;5134926;27;20134;-63
2022/12/13 02:49:50;;;;;;;1.48;1.10;;;;;;;1.39;80.63;95753.66;5134929;27;20043;-64
2022/12/13 02:52:25;;;;;;;1.23;1.10;;;;;;;1.34;80.66;95760.63;5134770;27;20088;-66
2022/12/13 02:54:54;;;;;;;1.63;0.95;;;;;;;1.31;80.20;95758.09;5134758;27;20051;-65
2022/12/13 02:57:37;;;;;;;1.45;1.25;;;;;;;1.28;80.46;95758.13;5134702;27;20050;-66
2022/12/13 03:00:07;;;;;;;4.45;1.58;;;;;;;1.25;80.41;95755.59;5134683;27;20382;-66
2022/12/13 03:02:40;;;;;;;;;;;;;;;1.19;80.69;95759.13;5134999;27;20075;-64
2022/12/13 03:08:12;;;;;;;5.38;1.40;;;;;;;1.11;80.82;95766.94;5134686;27;20050;-66
2022/12/13 03:10:48;;;;;;;1.92;1.63;;;;;;;1.09;81.04;95771.25;5134381;27;20480;-66
2022/12/13 03:13:37;;;;;;;4.05;1.83;;;;;;;1.05;81.46;95761.03;5134371;27;20066;-63
2022/12/13 03:16:13;;;;;;;1.92;1.80;;;;;;;0.97;81.62;95761.94;5134318;27;20051;-65
2022/12/13 03:18:44;;;;;;;2.50;2.20;;;;;;;0.87;82.27;95765.50;5134402;27;20051;-62
2022/12/13 03:21:12;;;;;;;;;;;;;;;0.83;82.18;95766.44;5134776;27;20055;-63
2022/12/13 03:23:39;;;;;;;2.15;1.80;;;;;;;0.80;82.72;95769.91;5134274;27;20380;-61
2022/12/13 03:26:11;;;;;;;2.40;2.20;;;;;;;0.76;82.84;95765.66;5134238;27;20050;-64
2022/12/13 03:28:38;;;;;;;7.28;2.28;;;;;;;0.79;82.44;95763.06;5134079;27;20480;-64
2022/12/13 03:31:06;;;;;;;3.38;2.38;;;;;;;0.79;82.26;95770.78;5134167;27;20103;-66
2022/12/13 03:33:34;;;;;;;3.17;2.78;;;;;;;0.79;82.78;95781.06;5134104;27;20104;-65
2022/12/13 03:36:03;;;;;;;3.08;2.42;;;;;;;0.79;83.04;95780.22;5134107;27;20055;-65
2022/12/13 03:38:30;;;;;;;2.40;2.20;;;;;;;0.79;82.25;95783.66;5133849;27;20086;-66
2022/12/13 03:41:00;;;;;;;3.50;2.40;;;;;;;0.80;82.57;95779.34;5134064;27;20496;-65
2022/12/13 03:43:28;;;;;;;2.42;2.22;;;;;;;0.77;82.33;95782.81;5133798;27;20404;-63
2022/12/13 03:45:56;;;;;;;5.43;2.50;;;;;;;0.78;82.16;95773.38;5134041;28;20047;-63
2022/12/13 03:48:27;;;;;;;3.20;2.67;;;;;;;0.71;81.88;95777.72;5133995;28;20043;-64
2022/12/13 03:50:56;;;;;;;3.15;2.60;;;;;;;0.62;82.04;95784.69;5133988;28;20459;-63
2022/12/13 03:53:26;;;;;;;9.20;2.80;;;;;;;0.63;81.78;95777.78;5133852;28;20077;-62
2022/12/13 03:55:54;;;;;;;2.55;2.33;;;;;;;0.59;81.87;95784.72;5133941;28;20451;-66
2022/12/13 03:58:21;;;;;;;3.00;2.67;;;;;;;0.50;82.28;95777.94;5133848;28;20130;-62
2022/12/13 04:00:49;;;;;;;3.47;2.83;;;;;;;0.47;81.45;95772.81;5133755;28;20051;-66
2022/12/13 04:03:16;;;;;;;2.95;2.35;;;;;;;0.40;80.46;95766.03;5133926;28;20047;-66
2022/12/13 04:05:44;;;;;;;2.85;2.30;;;;;;;0.37;81.27;95766.91;5133856;28;20100;-63
2022/12/13 04:08:11;;;;;;;3.58;2.55;;;;;;;0.35;81.52;95765.22;5133758;28;20473;-64
2022/12/13 04:10:39;;;;;;;3.00;2.47;;;;;;;0.31;81.73;95774.72;5133686;28;20078;-63
2022/12/13 04:15:51;;;;;;;3.05;2.75;;;;;;;0.31;81.69;95768.69;5133787;28;20082;-63
2022/12/13 04:18:19;;;;;;;2.90;2.42;;;;;;;0.28;81.88;95768.72;5133655;28;20051;-66
2022/12/13 04:20:49;;;;;;;3.25;2.58;;;;;;;0.21;81.93;95765.38;5133610;28;20386;-64
2022/12/13 04:23:16;;;;;;;2.50;2.23;;;;;;;0.15;82.12;95755.97;5133768;28;20078;-65
2022/12/13 04:25:45;;;;;;;3.22;2.75;;;;;;;0.12;81.48;95771.47;5133626;28;20054;-63
2022/12/13 04:28:13;;;;;;;3.58;2.45;;;;;;;0.14;81.53;95767.13;5133529;28;20047;-65
2022/12/13 04:30:40;;;;;;;3.42;2.53;;;;;;;0.19;81.34;95783.41;5133627;28;20047;-63
2022/12/13 04:33:08;;;;;;;3.80;2.40;;;;;;;0.19;81.93;95788.53;5133587;28;20047;-65
2022/12/13 04:35:35;;;;;;;2.92;2.63;;;;;;;0.18;82.45;95786.81;5133475;28;20544;-66
2022/12/13 04:38:02;;;;;;;3.70;2.95;;;;;;;0.16;82.36;95787.69;5133626;28;20130;-62
2022/12/13 04:40:29;;;;;;;5.55;3.05;;;;;;;0.20;82.49;95795.38;5133535;28;20245;-63
2022/12/13 04:42:58;;;;;;;15.95;9.73;;;;;;;0.02;82.03;95795.53;5133325;28;20082;-64
2022/12/13 04:45:27;;;;;;;23.95;15.32;;;;;;;0.06;82.72;95802.38;5133367;28;20043;-61
2022/12/13 04:47:54;;;;;;;4.90;3.85;;;;;;;0.05;82.48;95803.22;5133699;28;20047;-64
2022/12/13 04:50:22;;;;;;;2.85;2.58;;;;;;;0.08;81.63;95809.22;5134874;27;20051;-63
2022/12/13 04:52:49;;;;;;;3.90;2.80;;;;;;;0.04;81.15;95810.09;5137197;27;20058;-66
2022/12/13 04:55:17;;;;;;;3.78;2.80;;;;;;;-0.03;78.32;95824.72;5137134;27;20101;-62
2022/12/13 04:57:44;;;;;;;3.97;3.55;;;;;;;0.01;77.12;95824.69;5137095;27;20051;-64
2022/12/13 05:00:15;;;;;;;3.65;2.97;;;;;;;0.02;76.11;95823.81;5136949;27;20103;-62
2022/12/13 05:02:42;;;;;;;3.60;3.00;;;;;;;0.12;77.27;95839.16;5136992;27;20484;-67
2022/12/13 05:05:11;;;;;;;3.45;2.75;;;;;;;0.19;79.25;95841.69;5136764;27;20051;-66
2022/12/13 05:07:39;;;;;;;2.90;2.60;;;;;;;0.14;78.96;95840.88;5136794;27;20043;-65
2022/12/13 05:10:07;;;;;;;3.20;2.70;;;;;;;0.19;79.61;95852.84;5136871;27;20050;-63
2022/12/13 05:12:34;;;;;;;7.63;3.10;;;;;;;0.20;79.05;95851.13;5136721;27;20488;-63
2022/12/13 05:15:01;;;;;;;3.10;2.67;;;;;;;0.16;79.21;95855.44;5136739;27;20082;-62
2022/12/13 05:17:30;;;;;;;6.55;4.47;;;;;;;0.15;77.86;95861.44;5136519;27;20122;-63
2022/12/13 05:19:57;;;;;;;10.20;6.50;;;;;;;0.11;75.20;95859.75;5136684;27;20043;-64
2022/12/13 05:22:25;;;;;;;7.88;4.47;;;;;;;0.10;76.49;95868.34;5136737;27;20043;-65
2022/12/13 05:24:53;;;;;;;11.70;6.50;;;;;;;0.13;75.59;95868.34;5136425;27;20047;-66
2022/12/13 05:27:20;;;;;;;4.97;3.63;;;;;;;0.17;75.61;95864.88;5136482;27;20043;-66
2022/12/13 05:29:48;;;;;;;5.80;3.40;;;;;;;0.18;74.60;95871.72;5136323;27;20043;-67
2022/12/13 05:32:15;;;;;;;2.90;2.60;;;;;;;0.18;73.55;95866.56;5136464;27;20071;-63
2022/12/13 05:34:44;;;;;;;2.67;2.40;;;;;;;0.16;73.44;95876.03;5136390;27;20132;-64
2022/12/13 05:37:11;;;;;;;2.47;2.28;;;;;;;0.19;73.30;95870.00;5136321;27;20079;-65
2022/12/13 05:39:39;;;;;;;2.60;2.20;;;;;;;0.12;70.60;95877.75;5136229;27;20122;-63
2022/12/13 05:42:06;;;;;;;3.40;2.63;;;;;;;0.20;71.33;95879.41;5136021;27;20054;-62
2022/12/13 05:44:35;;;;;;;3.47;3.03;;;;;;;0.24;72.16;95886.28;5135978;27;20047;-64
2022/12/13 05:47:02;;;;;;;4.22;2.55;;;;;;;0.22;70.82;95883.72;5136041;27;20446;-63
2022/12/13 05:49:30;;;;;;;3.63;2.90;;;;;;;0.19;69.56;95894.03;5135986;27;20488;-66
2022/12/13 05:51:59;;;;;;;3.67;2.70;;;;;;;0.21;70.50;95892.28;5136025;27;20496;-63
2022/12/13 05:54:27;;;;;;;3.28;2.45;;;;;;;0.22;70.41;95894.00;5135962;27;20443;-65
2022/12/13 05:56:54;;;;;;;2.58;2.00;;;;;;;0.20;69.55;95897.44;5135932;27;20484;-63
2022/12/13 05:59:22;;;;;;;3.25;2.13;;;;;;;0.15;68.54;95896.63;5135789;27;20400;-63
2022/12/13 06:01:49;;;;;;;3.42;2.17;;;;;;;0.18;68.27;95901.75;5135706;27;20051;-65
2022/12/13 06:04:16;;;;;;;2.58;2.35;;;;;;;0.21;68.84;95906.88;5135623;27;20078;-64
2022/12/13 06:06:44;;;;;;;4.28;2.80;;;;;;;0.28;69.70;95910.25;5135638;27;20111;-62
2022/12/13 06:09:12;;;;;;;4.18;2.20;;;;;;;0.31;69.01;95911.09;5135665;27;20066;-66
2022/12/13 06:11:39;;;;;;;5.07;2.30;;;;;;;0.33;69.76;95909.34;5135595;27;20046;-66
2022/12/13 06:14:06;;;;;;;3.35;2.60;;;;;;;0.36;70.18;95913.63;5135453;27;20047;-63
2022/12/13 06:16:34;;;;;;;3.28;2.28;;;;;;;0.36;70.69;95927.31;5135416;27;20050;-62
2022/12/13 06:19:01;;;;;;;3.83;2.40;;;;;;;0.34;69.28;95923.94;5135476;27;20058;-63
2022/12/13 06:21:28;;;;;;;2.85;2.10;;;;;;;0.35;69.48;95943.66;5135597;27;20058;-65
2022/12/13 06:23:56;;;;;;;2.75;2.45;;;;;;;0.37;71.12;95935.91;5135361;27;20043;-67
2022/12/13 06:26:25;;;;;;;3.22;2.65;;;;;;;0.31;72.14;95930.81;5135286;27;20047;-65
2022/12/13 06:28:52;;;;;;;3.05;2.42;;;;;;;0.25;71.74;95947.97;5135249;27;20587;-64
2022/12/13 06:31:20;;;;;;;3.53;2.50;;;;;;;0.14;72.19;95944.63;5135263;27;20043;-65
2022/12/13 06:33:47;;;;;;;2.53;2.33;;;;;;;0.16;72.49;95950.63;5135103;27;20086;-62
2022/12/13 06:36:15;;;;;;;3.38;2.40;;;;;;;0.24;72.70;95958.31;5135094;27;20511;-66
2022/12/13 06:38:43;;;;;;;3.10;2.72;;;;;;;0.35;73.20;95960.78;5135111;27;20047;-62
2022/12/13 06:41:12;;;;;;;4.25;2.72;;;;;;;0.41;75.18;95959.88;5134664;27;20090;-64
2022/12/13 06:43:42;;;;;;;2.20;2.00;;;;;;;0.48;74.61;95954.69;5135017;27;20086;-66
2022/12/13 06:46:10;;;;;;;;;;;;;;;0.54;73.61;95960.69;5135361;27;20058;-62
2022/12/13 06:48:39;;;;;;;2.75;2.17;;;;;;;0.59;73.96;95970.06;5134890;27;19923;-63
2022/12/13 06:51:08;;;;;;;3.08;2.30;;;;;;;0.63;72.88;95982.03;5134817;27;20480;-65
2022/12/13 06:53:37;;;;;;;3.58;2.63;;;;;;;0.72;72.46;95983.69;5134877;27;20098;-64
2022/12/13 06:56:07;;;;;;;2.90;2.60;;;;;;;0.84;73.17;95987.06;5134743;27;20074;-66
2022/12/13 06:58:35;;;;;;;4.63;3.72;;;;;;;0.92;73.82;95980.09;5134621;27;20043;-65
2022/12/13 07:01:06;;;;;;;5.32;3.40;;;;;;;1.03;74.68;95981.72;5134834;27;20381;-67
2022/12/13 07:03:35;;;;;;;5.18;3.03;;;;;;;1.11;74.61;95992.81;5134787;27;20112;-64
2022/12/13 07:06:06;;;;;;;7.53;3.60;;;;;;;1.18;75.11;96006.50;5134520;27;20130;-65
2022/12/13 07:08:34;;;;;;;3.63;3.28;;;;;;;1.18;76.00;95994.47;5134632;27;20481;-66
2022/12/13 07:11:02;;;;;;;3.80;2.63;;;;;;;1.17;76.02;95997.91;5134611;27;20066;-65
2022/12/13 07:13:30;;;;;;;2.85;2.53;;;;;;;1.25;74.93;96001.28;5133936;27;20050;-65
2022/12/13 07:15:58;;;;;;;3.92;2.60;;;;;;;1.35;74.71;96001.16;5134382;27;20462;-65
2022/12/13 07:18:27;;;;;;;4.03;2.30;;;;;;;1.37;69.88;96013.19;5134380;27;20047;-65
2022/12/13 07:20:54;;;;;;;3.88;2.30;;;;;;;1.39;69.13;96016.59;5134365;27;20039;-65
2022/12/13 07:23:21;;;;;;;3.05;2.47;;;;;;;1.44;69.42;96019.13;5134326;27;20098;-67
2022/12/13 07:25:53;;;;;;;2.60;2.08;;;;;;;1.51;69.85;96007.88;5134224;27;20096;-63
2022/12/13 07:28:21;;;;;;;3.00;2.45;;;;;;;1.54;67.92;96013.88;5134224;27;20130;-63
2022/12/13 07:30:49;;;;;;;3.70;2.30;;;;;;;1.56;67.79;96023.28;5134183;27;20039;-66
2022/12/13 07:33:16;;;;;;;3.45;2.38;;;;;;;1.61;69.01;96023.25;5134051;27;20096;-66
2022/12/13 07:35:45;;;;;;;4.30;2.20;;;;;;;1.66;69.34;96030.94;5134170;27;20046;-64
2022/12/13 07:38:12;;;;;;;2.75;2.30;;;;;;;1.63;69.55;96034.41;5134155;27;20137;-67
2022/12/13 07:40:41;;;;;;;2.50;2.30;;;;;;;1.57;69.44;96035.34;5134057;27;20047;-62
2022/12/13 07:43:10;;;;;;;5.57;2.50;;;;;;;1.57;70.41;96045.66;5134010;27;20062;-65
2022/12/13 07:45:37;;;;;;;3.00;2.47;;;;;;;1.63;70.38;96042.16;5134055;28;20051;-65
2022/12/13 07:48:07;;;;;;;2.90;2.08;;;;;;;1.66;71.24;96042.13;5133956;28;20051;-67
2022/12/13 07:50:34;;;;;;;5.20;2.40;;;;;;;1.73;71.86;96055.78;5134069;28;20500;-67
2022/12/13 07:53:06;;;;;;;3.28;2.58;;;;;;;1.71;69.91;96054.94;5134031;28;20499;-66
2022/12/13 07:55:34;;;;;;;3.28;2.85;;;;;;;1.73;70.61;96048.06;5133867;28;20043;-64
2022/12/13 07:58:06;;;;;;;3.00;2.63;;;;;;;1.76;70.47;96048.03;5133862;28;20058;-65
2022/12/13 08:00:33;;;;;;;4.15;2.72;;;;;;;1.84;70.53;96048.78;5133903;28;20397;-62
2022/12/13 08:03:01;;;;;;;2.58;1.95;;;;;;;1.92;69.06;96047.88;5133926;28;20043;-64
2022/12/13 08:05:28;;;;;;;3.55;2.25;;;;;;;1.95;68.83;96055.53;5133805;28;20051;-65
2022/12/13 08:07:55;;;;;;;2.80;2.35;;;;;;;2.01;70.69;96052.88;5134047;28;20043;-65
2022/12/13 08:10:24;;;;;;;3.13;2.78;;;;;;;2.08;70.59;96051.09;5133957;28;20488;-66
2022/12/13 08:12:51;;;;;;;3.67;2.50;;;;;;;2.06;69.50;96063.16;5133799;28;20061;-67
2022/12/13 08:15:20;;;;;;;2.95;2.50;;;;;;;2.01;71.87;96055.47;5133859;28;20047;-65
2022/12/13 08:17:48;;;;;;;3.50;2.80;;;;;;;2.05;74.89;96059.75;5133810;28;20044;-62
2022/12/13 08:20:16;;;;;;;3.40;2.70;;;;;;;2.03;72.47;96058.91;5133612;28;20408;-64
2022/12/13 08:22:43;;;;;;;3.92;2.88;;;;;;;2.09;70.13;96057.97;5133747;28;20047;-61
2022/12/13 08:25:10;;;;;;;3.53;3.05;;;;;;;2.20;70.76;96066.41;5134852;27;20174;-65
2022/12/13 08:27:39;;;;;;;3.90;2.92;;;;;;;2.32;70.07;96059.41;5137763;27;20477;-65
2022/12/13 08:30:08;;;;;;;2.90;2.50;;;;;;;2.51;69.17;96066.06;5137599;27;20496;-67
2022/12/13 08:32:35;;;;;;;3.78;3.13;;;;;;;2.70;68.92;96073.53;5137621;27;20125;-63
2022/12/13 08:35:02;;;;;;;5.15;2.60;;;;;;;2.78;66.24;96066.53;5137464;27;20069;-63
2022/12/13 08:37:29;;;;;;;3.00;2.47;;;;;;;2.85;67.56;96066.41;5137403;27;20086;-67
2022/12/13 08:39:56;;;;;;;2.70;2.42;;;;;;;2.80;62.31;96079.41;5137388;27;20467;-64
2022/12/13 08:42:24;;;;;;;7.03;2.95;;;;;;;2.86;62.04;96081.06;5137121;27;20051;-64
2022/12/13 08:44:53;;;;;;;5.82;2.95;;;;;;;2.96;59.34;96074.88;5137270;27;20047;-62
2022/12/13 08:47:23;;;;;;;5.67;3.73;;;;;;;3.11;61.84;96076.38;5137380;27;20054;-64
2022/12/13 08:49:50;;;;;;;3.22;2.67;;;;;;;3.05;62.74;96071.31;5137396;27;20047;-65
2022/12/13 08:52:18;;;;;;;3.25;2.60;;;;;;;3.00;60.42;96063.63;5137137;27;20050;-62
2022/12/13 08:54:45;;;;;;;2.80;2.50;;;;;;;2.98;55.75;96065.34;5137173;27;20134;-62
2022/12/13 08:57:12;;;;;;;5.88;3.05;;;;;;;2.74;58.66;96062.28;5137155;27;20074;-64
2022/12/13 08:59:39;;;;;;;3.65;2.50;;;;;;;2.97;58.45;96071.41;5137103;27;20048;-65
2022/12/13 09:02:12;;;;;;;3.83;2.60;;;;;;;3.30;58.93;96081.25;5137137;27;20142;-64
2022/12/13 09:04:39;;;;;;;3.90;2.88;;;;;;;3.49;54.76;96073.19;5137052;27;20398;-62
2022/12/13 09:07:06;;;;;;;2.38;2.13;;;;;;;3.53;53.92;96070.50;5136832;27;20051;-62
2022/12/13 09:09:34;;;;;;;6.53;3.22;;;;;;;3.63;58.27;96067.75;5136803;27;20404;-62
2022/12/13 09:12:01;;;;;;;3.60;2.83;;;;;;;3.53;57.99;96067.91;5136800;27;20047;-64
2022/12/13 09:14:28;;;;;;;4.13;2.92;;;;;;;3.58;56.34;96078.19;5136842;27;20078;-63
2022/12/13 09:16:56;;;;;;;3.75;2.90;;;;;;;3.65;53.75;96071.19;5136769;27;20043;-65
2022/12/13 09:19:25;;;;;;;3.28;2.70;;;;;;;3.71;56.60;96071.06;5136705;27;20043;-64
2022/12/13 09:21:52;;;;;;;4.28;3.58;;;;;;;3.73;53.71;96060.69;5136528;27;20051;-64
2022/12/13 09:24:20;;;;;;;4.55;3.10;;;;;;;3.65;52.48;96059.06;5136445;27;20554;-66
2022/12/13 09:26:47;;;;;;;3.55;2.95;;;;;;;3.70;53.73;96055.56;5136573;27;20079;-64
2022/12/13 09:29:15;;;;;;;3.30;3.00;;;;;;;3.78;55.51;96051.97;5136488;27;20046;-64
2022/12/13 09:31:42;;;;;;;4.43;3.30;;;;;;;3.79;54.34;96050.22;5136390;27;20047;-64
2022/12/13 09:34:10;;;;;;;3.25;2.80;;;;;;;3.96;54.83;96049.03;5136269;27;20043;-65
2022/12/13 09:36:39;;;;;;;3.35;2.78;;;;;;;4.13;54.06;96046.13;5135928;27;20082;-65
2022/12/13 09:39:06;;;;;;;5.70;3.80;;;;;;;4.27;54.13;96043.22;5136199;27;20051;-62
2022/12/13 09:41:37;;;;;;;3.78;3.33;;;;;;;4.41;52.46;96035.19;5135881;27;20047;-64
2022/12/13 09:44:08;;;;;;;2.95;2.50;;;;;;;4.53;48.93;96036.66;5136029;27;20122;-62
2022/12/13 09:46:37;;;;;;;;;;;;;;;4.55;52.62;96047.84;5136350;27;20051;-64
2022/12/13 09:49:12;;;;;;;4.93;3.65;;;;;;;4.57;52.73;96051.22;5136138;27;19989;-66
2022/12/13 09:51:41;;;;;;;7.68;4.80;;;;;;;4.66;52.24;96035.50;5136033;27;20047;-63
2022/12/13 09:54:11;;;;;;;5.05;3.45;;;;;;;4.74;52.80;96027.56;5135952;27;20053;-65
2022/12/13 09:56:38;;;;;;;;;;;;;;;4.78;50.16;96018.81;5136310;27;20072;-63
2022/12/13 09:59:05;;;;;;;4.63;2.70;;;;;;;4.80;49.04;96005.81;5135845;27;19926;-66
2022/12/13 10:01:33;;;;;;;6.18;3.75;;;;;;;4.88;51.06;95998.69;5135818;27;20093;-64
2022/12/13 10:04:02;;;;;;;5.10;3.55;;;;;;;4.93;52.30;95988.22;5136036;27;20068;-66
2022/12/13 10:06:31;;;;;;;5.72;3.78;;;;;;;4.97;54.72;95987.25;5135507;27;20069;-66
2022/12/13 10:09:01;;;;;;;5.32;3.38;;;;;;;5.03;52.51;95983.69;5135626;27;20043;-66
2022/12/13 10:11:29;;;;;;;8.98;5.93;;;;;;;5.18;51.36;95979.84;5135612;27;20043;-65
2022/12/13 10:14:02;;;;;;;6.15;3.20;;;;;;;5.33;53.09;95981.22;5135550;27;20051;-64
2022/12/13 10:16:40;;;;;;;8.55;4.13;;;;;;;5.52;51.43;95980.72;5135484;27;20553;-65
2022/12/13 10:19:16;;;;;;;5.50;4.03;;;;;;;5.63;50.86;95978.66;5135499;27;20043;-64
2022/12/13 10:21:47;;;;;;;5.80;4.05;;;;;;;5.74;49.84;95978.38;5135401;27;20051;-66
2022/12/13 10:24:19;;;;;;;2.30;2.10;;;;;;;5.69;45.43;95975.91;5135439;27;20066;-64
2022/12/13 10:26:47;;;;;;;10.10;6.50;;;;;;;5.62;47.51;95976.09;5135312;27;20146;-64
2022/12/13 10:29:14;;;;;;;4.70;3.90;;;;;;;5.71;49.04;95980.19;5135285;27;20070;-64
2022/12/13 10:31:44;;;;;;;4.30;2.83;;;;;;;5.72;46.32;95977.56;5135225;27;20043;-63
2022/12/13 10:34:23;;;;;;;3.38;2.53;;;;;;;5.62;46.60;95981.28;5135101;27;20070;-65
2022/12/13 10:36:50;;;;;;;32.72;14.88;;;;;;;5.44;47.60;95981.75;5135254;27;20043;-63
2022/12/13 10:39:37;;;;;;;17.42;6.68;;;;;;;5.49;49.19;95983.38;5135026;27;20490;-64
2022/12/13 10:42:06;;;;;;;3.60;2.80;;;;;;;5.54;46.94;95981.53;5134819;27;20082;-64
2022/12/13 10:44:33;;;;;;;4.28;2.92;;;;;;;5.64;49.04;95987.31;5135051;27;20055;-63
2022/12/13 10:47:06;;;;;;;3.13;2.83;;;;;;;5.80;46.19;95983.41;5134712;27;20177;-64
2022/12/13 10:49:40;;;;;;;5.03;2.35;;;;;;;5.69;44.95;95981.09;5134413;27;20043;-64
2022/12/13 10:52:20;;;;;;;4.35;3.08;;;;;;;5.62;45.00;95976.97;5134980;27;20043;-65
2022/12/13 10:54:50;;;;;;;2.22;1.80;;;;;;;5.49;43.67;95983.38;5134750;27;20057;-63
2022/12/13 10:57:19;;;;;;;3.78;2.60;;;;;;;5.42;43.72;95980.94;5134686;27;20130;-67
2022/12/13 10:59:48;;;;;;;3.42;3.03;;;;;;;5.28;43.35;95980.47;5134651;27;20047;-62
2022/12/13 11:02:31;;;;;;;2.80;2.28;;;;;;;5.13;43.11;95979.09;5134708;27;20050;-61
2022/12/13 11:04:59;;;;;;;2.10;1.88;;;;;;;5.13;42.80;95981.69;5134600;27;20450;-63
2022/12/13 11:07:29;;;;;;;7.80;2.83;;;;;;;5.18;44.96;95977.25;5134557;27;20053;-62
2022/12/13 11:10:15;;;;;;;3.28;2.33;;;;;;;5.21;44.45;95976.31;5134583;27;20051;-66
2022/12/13 11:12:43;;;;;;;2.75;2.08;;;;;;;5.18;40.92;95974.66;5134514;27;20047;-65
2022/12/13 11:15:18;;;;;;;3.88;2.55;;;;;;;5.17;42.97;95978.13;5134466;27;20112;-66
2022/12/13 11:17:49;;;;;;;4.10;2.20;;;;;;;5.07;42.08;95980.13;5134391;27;20046;-66
2022/12/13 11:20:21;;;;;;;2.85;1.73;;;;;;;5.06;41.55;95971.47;5134440;27;20088;-66
2022/12/13 11:22:50;;;;;;;2.47;2.13;;;;;;;4.95;41.93;95963.13;5134422;27;20047;-66
2022/12/13 11:25:25;;;;;;;2.67;1.85;;;;;;;4.95;41.70;95954.50;5134326;27;20047;-63
2022/12/13 11:28:06;;;;;;;1.63;1.52;;;;;;;5.03;41.26;95953.41;5134197;27;20103;-63
2022/12/13 11:30:46;;;;;;;2.40;1.83;;;;;;;5.09;41.07;95954.97;5134267;27;20054;-64
2022/12/13 11:33:25;;;;;;;2.05;1.83;;;;;;;5.12;41.29;95960.09;5134347;27;20051;-65
2022/12/13 11:36:05;;;;;;;2.00;1.65;;;;;;;5.06;41.80;95953.34;5134177;27;20043;-65
2022/12/13 11:38:42;;;;;;;2.08;1.88;;;;;;;5.03;41.86;95956.00;5134094;27;20096;-65
2022/12/13 11:41:15;;;;;;;2.63;1.92;;;;;;;5.03;41.22;95957.75;5134053;27;20126;-64
2022/12/13 11:43:47;;;;;;;4.75;2.08;;;;;;;5.12;40.97;95952.31;5134185;27;20092;-66
2022/12/13 11:46:19;;;;;;;3.85;2.90;;;;;;;5.15;49.70;95954.84;5133984;27;20109;-66
2022/12/13 11:48:51;;;;;;;6.22;4.20;;;;;;;5.09;54.46;95954.16;5134065;28;20096;-65
2022/12/13 11:51:26;;;;;;;6.32;3.83;;;;;;;4.98;56.44;95949.22;5134038;28;20043;-61
2022/12/13 11:53:58;;;;;;;4.93;4.18;;;;;;;4.90;56.88;95954.59;5134004;28;20055;-63
2022/12/13 11:56:30;;;;;;;5.53;3.90;;;;;;;4.78;57.37;95953.16;5133978;28;20066;-63
2022/12/13 11:59:06;;;;;;;8.13;4.38;;;;;;;4.61;55.94;95958.75;5134793;27;20057;-62